Main page
METAR-TAF:

METAR-TAF

Airports :

Lemnos International Airport

Lemnos, Greece

latitude: 39-55N, longitude: 025-14E, elevation: 5 m

Current weather observation

The report was made 44 minutes ago, at 09:20 UTC
Calm wind
Temperature 15°C
Humidity 72%
Pressure 1018 hPa
Visibility 10 km or more
Few clouds at a height of 2000 ft

METAR: LGLM 190920Z 00000KT 9999 FEW020 15/10 Q1018

Time: 12:04 (10:04 UTC)

Forecast

The report was made 2 hours and 4 minutes ago, at 08:00 UTC
Forecast valid from 19 at 09 UTC to 19 at 18 UTC
Wind 12 kt from the South/Southeast
Visibility 10 km or more
Scattered clouds at a height of 2000 ft

TAF: LGLM 190800Z 1909/1918 16012KT 9999 SCT020

Weather observations and forecasts of more than 4000 airports (METAR and TAF reports).

The available stations are represented by yellow and red dots on the map.

Hover mouse over dot to see the name of the station.

Then click to see weather observations and forecasts.

To change the map : click on the green buttons with a black cross to zoom in, on the green button with a dash to zoom out, or on the green arrows for adjacent maps.


METAR-TAF: